Terminal Aerodrome Forecast
Issued by NWS Pocatello, ID

Home | Current Version | Previous Version | Text Only | Print | Product List | Glossary On
Versions: 1 2 3 4 5 6 7 8 9 10 11 12 13 14 15 16 17 18 19 20 21 22 23 24
000
FTUS45 KPIH 220500
TAFIDA
TAF
KIDA 220520Z 2206/2306 08010KT P6SM VCSH BKN080 BKN200
     FM220900 01008KT P6SM -SHRA SCT060 BKN090 OVC160
     FM221900 07010KT P6SM -SHRA VCTS SCT080CB BKN160
     FM222100 24015KT P6SM -SHRA VCTS SCT080CB BKN140 OVC160
     FM230000 VRB05KT P6SM VCTS FEW060CB BKN160=

USA.gov is the U.S. government's official web portal to all federal, state and local government web resources and services.